createdAt,value
2023-07-25T00:04:32.577Z,17.85
2023-07-25T00:09:34.423Z,17.82
2023-07-25T00:14:36.697Z,17.76
2023-07-25T00:19:38.764Z,17.73
2023-07-25T00:24:40.620Z,17.71
2023-07-25T00:29:42.578Z,17.69
2023-07-25T00:34:44.442Z,17.71
2023-07-25T00:39:46.340Z,17.73
2023-07-25T00:44:48.242Z,17.76
2023-07-25T00:49:51.426Z,17.77
2023-07-25T00:54:53.324Z,17.80
2023-07-25T00:59:55.185Z,17.80
2023-07-25T01:04:57.108Z,17.79
2023-07-25T01:09:58.979Z,17.71
2023-07-25T01:15:00.932Z,17.59
2023-07-25T01:20:03.444Z,17.50
2023-07-25T01:25:08.414Z,17.47
2023-07-25T01:30:10.428Z,17.50
2023-07-25T01:35:12.503Z,17.55
2023-07-25T01:40:14.400Z,17.50
2023-07-25T01:45:16.318Z,17.44
2023-07-25T01:50:18.310Z,17.40
2023-07-25T01:55:20.897Z,17.39
2023-07-25T02:00:22.887Z,17.38
2023-07-25T02:05:26.265Z,17.37
2023-07-25T02:10:28.966Z,17.32
2023-07-25T02:15:30.845Z,17.26
2023-07-25T02:20:33.896Z,17.20
2023-07-25T02:25:35.870Z,17.23
2023-07-25T02:30:37.679Z,17.23
2023-07-25T02:35:39.831Z,17.19
2023-07-25T02:40:41.845Z,17.12
2023-07-25T02:45:43.910Z,17.06
2023-07-25T02:50:46.174Z,17.01
2023-07-25T02:55:47.973Z,17.00
2023-07-25T03:00:49.852Z,17.00
2023-07-25T03:05:52.008Z,16.99
2023-07-25T03:10:53.922Z,16.96
2023-07-25T03:15:55.802Z,16.90
2023-07-25T03:20:57.626Z,16.90
2023-07-25T03:25:59.881Z,16.97
2023-07-25T03:31:02.164Z,17.00
2023-07-25T03:36:05.131Z,16.96
2023-07-25T03:41:07.690Z,16.91
2023-07-25T03:46:09.723Z,16.90
2023-07-25T03:51:12.126Z,16.96
2023-07-25T03:56:13.999Z,16.97
2023-07-25T04:01:15.837Z,17.06
2023-07-25T04:06:19.104Z,17.14
2023-07-25T04:11:21.059Z,17.18
2023-07-25T04:16:23.515Z,17.23
2023-07-25T04:21:25.416Z,17.38
2023-07-25T04:26:27.398Z,17.59
2023-07-25T04:31:29.300Z,17.78
2023-07-25T04:36:31.545Z,17.94
2023-07-25T04:41:34.343Z,18.14
2023-07-25T04:46:36.439Z,18.33
2023-07-25T04:51:39.999Z,18.50
2023-07-25T04:56:42.436Z,18.68
2023-07-25T05:01:44.295Z,18.81
2023-07-25T05:06:46.277Z,18.96
2023-07-25T05:11:48.637Z,19.17
2023-07-25T05:16:50.406Z,19.44
2023-07-25T05:21:59.265Z,19.70
2023-07-25T05:27:01.365Z,19.98
2023-07-25T05:32:03.229Z,20.21
2023-07-25T05:37:06.444Z,20.47
2023-07-25T05:42:08.639Z,20.72
2023-07-25T05:47:10.387Z,20.91
2023-07-25T05:52:12.297Z,21.15
2023-07-25T05:57:14.340Z,21.36
2023-07-25T06:02:17.721Z,21.59
2023-07-25T06:07:20.703Z,21.83
2023-07-25T06:12:24.660Z,22.10
2023-07-25T06:17:26.483Z,22.35
2023-07-25T06:22:28.384Z,22.58
2023-07-25T06:27:30.191Z,22.80
2023-07-25T06:32:32.181Z,23.01
2023-07-25T06:37:35.072Z,23.22
2023-07-25T06:42:39.071Z,23.49
2023-07-25T06:47:40.988Z,23.71
2023-07-25T06:52:43.143Z,23.89
2023-07-25T06:57:44.985Z,23.85
2023-07-25T07:02:46.966Z,23.99
2023-07-25T07:07:49.295Z,24.40
2023-07-25T07:12:51.836Z,24.60
2023-07-25T07:17:54.354Z,24.54
2023-07-25T07:22:56.294Z,24.63
2023-07-25T07:27:58.104Z,24.53
2023-07-25T07:33:00.745Z,24.55
2023-07-25T07:38:02.821Z,24.84
2023-07-25T07:43:05.128Z,25.22
2023-07-25T07:48:06.920Z,25.73
2023-07-25T07:53:08.765Z,26.19
2023-07-25T07:58:10.944Z,26.93
2023-07-25T08:03:12.871Z,27.26
2023-07-25T08:08:17.565Z,27.12
2023-07-25T08:13:19.754Z,27.07
2023-07-25T08:18:21.581Z,27.01
2023-07-25T08:23:23.839Z,27.26
2023-07-25T08:28:25.683Z,27.45
2023-07-25T08:33:28.220Z,27.55
2023-07-25T08:38:30.074Z,27.54
2023-07-25T08:43:37.871Z,27.68
2023-07-25T08:48:41.907Z,27.81
2023-07-25T08:53:57.321Z,28.05
2023-07-25T08:58:59.959Z,28.33
2023-07-25T09:04:03.291Z,28.64
2023-07-25T09:09:06.207Z,28.86
2023-07-25T09:14:08.242Z,28.96
2023-07-25T09:19:10.468Z,29.07
2023-07-25T09:24:12.396Z,29.22
2023-07-25T09:29:14.185Z,29.34
2023-07-25T09:34:19.087Z,29.34
2023-07-25T09:39:21.233Z,29.51
2023-07-25T09:44:23.491Z,29.83
2023-07-25T09:49:26.297Z,30.02
2023-07-25T09:54:28.151Z,30.12
2023-07-25T09:59:30.687Z,29.91
2023-07-25T10:04:35.741Z,29.60
2023-07-25T10:09:38.231Z,29.05
2023-07-25T10:14:40.099Z,28.64
2023-07-25T10:19:53.571Z,28.01
2023-07-25T10:24:55.940Z,27.60
2023-07-25T10:30:02.676Z,27.27
2023-07-25T10:35:05.640Z,27.01
2023-07-25T10:40:14.192Z,26.78
2023-07-25T10:45:28.118Z,26.71
2023-07-25T10:50:53.145Z,26.74
2023-07-25T10:56:14.265Z,26.87
2023-07-25T11:01:38.410Z,26.97
2023-07-25T11:06:40.618Z,27.26
2023-07-25T11:11:47.632Z,27.34
2023-07-25T11:16:51.802Z,27.42
2023-07-25T11:21:54.060Z,27.40
2023-07-25T11:26:55.860Z,27.25
2023-07-25T11:32:02.645Z,27.11
2023-07-25T11:37:12.552Z,26.84
2023-07-25T11:42:15.695Z,26.64
2023-07-25T11:47:17.554Z,26.23
2023-07-25T11:52:21.100Z,25.90
2023-07-25T11:57:22.975Z,25.66
2023-07-25T12:02:25.983Z,25.25
2023-07-25T12:07:28.039Z,24.96
2023-07-25T12:12:30.029Z,24.70
2023-07-25T12:17:42.308Z,24.33
2023-07-25T12:22:47.040Z,23.87
2023-07-25T12:27:50.034Z,23.54
2023-07-25T12:32:52.865Z,23.41
2023-07-25T12:37:54.829Z,23.23
2023-07-25T12:42:56.739Z,22.81
2023-07-25T12:47:58.575Z,22.44
2023-07-25T12:53:00.443Z,22.27
2023-07-25T12:58:02.890Z,22.33
2023-07-25T13:03:05.262Z,22.37
2023-07-25T13:08:07.290Z,22.38
2023-07-25T13:13:09.154Z,22.42
2023-07-25T13:18:11.280Z,22.49
2023-07-25T13:23:14.874Z,22.48
2023-07-25T13:28:17.872Z,22.54
2023-07-25T13:33:20.721Z,22.57
2023-07-25T13:38:22.694Z,22.49
2023-07-25T13:43:24.740Z,22.39
2023-07-25T13:48:26.786Z,22.30
2023-07-25T13:53:28.582Z,22.04
2023-07-25T13:58:30.468Z,21.87
2023-07-25T14:03:33.487Z,21.70
2023-07-25T14:08:35.346Z,21.51
2023-07-25T14:13:37.300Z,21.35
2023-07-25T14:18:39.120Z,21.31
2023-07-25T14:23:41.016Z,21.34
2023-07-25T14:28:43.347Z,21.34
2023-07-25T14:33:45.181Z,21.18
2023-07-25T14:39:16.038Z,21.12
2023-07-25T14:44:27.820Z,20.96
2023-07-25T14:49:29.714Z,20.74
2023-07-25T14:54:31.880Z,20.68
2023-07-25T14:59:33.887Z,20.83
2023-07-25T15:04:35.850Z,20.70
2023-07-25T15:09:37.884Z,20.28
2023-07-25T15:14:39.696Z,19.84
2023-07-25T15:19:41.527Z,19.51
2023-07-25T15:24:43.434Z,19.15
2023-07-25T15:29:45.326Z,18.84
2023-07-25T15:34:47.155Z,18.64
2023-07-25T15:39:51.444Z,18.48
2023-07-25T15:44:53.337Z,18.38
2023-07-25T15:49:55.470Z,18.32
2023-07-25T15:54:58.835Z,18.28
2023-07-25T16:00:00.697Z,18.29
2023-07-25T16:05:02.947Z,18.38
2023-07-25T16:10:06.617Z,18.48
2023-07-25T16:15:09.178Z,18.58
2023-07-25T16:20:11.644Z,18.66
2023-07-25T16:25:13.537Z,18.73
2023-07-25T16:30:15.846Z,18.93
2023-07-25T16:35:18.001Z,19.26
2023-07-25T16:40:20.597Z,19.58
2023-07-25T16:45:22.399Z,19.74
2023-07-25T16:50:24.740Z,19.84
2023-07-25T16:55:26.710Z,19.75
2023-07-25T17:00:29.203Z,19.70
2023-07-25T17:05:31.418Z,19.82
2023-07-25T17:10:33.401Z,19.80
2023-07-25T17:15:35.762Z,19.85
2023-07-25T17:20:40.651Z,19.90
2023-07-25T17:25:44.684Z,19.94
2023-07-25T17:30:46.821Z,19.96
2023-07-25T17:35:48.847Z,20.00
2023-07-25T17:40:50.747Z,19.89
2023-07-25T17:45:52.632Z,19.77
2023-07-25T17:50:54.503Z,19.63
2023-07-25T17:55:56.313Z,19.44
2023-07-25T18:00:58.601Z,19.26
2023-07-25T18:06:00.766Z,19.04
2023-07-25T18:11:02.769Z,18.86
2023-07-25T18:16:04.842Z,18.76
2023-07-25T18:21:09.187Z,18.68
2023-07-25T18:26:12.161Z,18.56
2023-07-25T18:31:14.027Z,18.48
2023-07-25T18:36:15.865Z,18.49
2023-07-25T18:41:17.659Z,18.57
2023-07-25T18:46:19.502Z,18.60
2023-07-25T18:51:21.374Z,18.46
2023-07-25T18:56:23.323Z,18.33
2023-07-25T19:01:25.443Z,18.24
2023-07-25T19:06:27.364Z,18.23
2023-07-25T19:11:29.269Z,18.33
2023-07-25T19:16:31.495Z,18.34
2023-07-25T19:21:33.673Z,18.33
2023-07-25T19:26:37.368Z,18.31
2023-07-25T19:31:40.190Z,18.23
2023-07-25T19:36:41.948Z,18.18
2023-07-25T19:41:44.440Z,18.13
2023-07-25T19:46:46.506Z,17.99
2023-07-25T19:51:48.439Z,18.11
2023-07-25T19:56:50.248Z,18.09
2023-07-25T20:01:52.044Z,18.04
2023-07-25T20:06:53.909Z,18.01
2023-07-25T20:11:55.929Z,18.03
2023-07-25T20:16:57.934Z,17.96
2023-07-25T20:21:59.946Z,17.90
2023-07-25T20:27:01.875Z,17.89
2023-07-25T20:32:03.924Z,17.88
2023-07-25T20:37:07.925Z,17.86
2023-07-25T20:42:09.864Z,17.88
2023-07-25T20:47:11.796Z,17.85
2023-07-25T20:52:13.862Z,17.81
2023-07-25T20:57:15.725Z,17.77
2023-07-25T21:02:17.565Z,17.76
2023-07-25T21:07:19.413Z,17.76
2023-07-25T21:12:21.461Z,17.73
2023-07-25T21:17:23.549Z,17.66
2023-07-25T21:22:25.375Z,17.65
2023-07-25T21:27:27.236Z,17.56
2023-07-25T21:32:29.068Z,17.49
2023-07-25T21:37:31.052Z,17.45
2023-07-25T21:42:32.939Z,17.43
2023-07-25T21:47:34.873Z,17.46
2023-07-25T21:52:36.719Z,17.53
2023-07-25T21:57:38.513Z,17.53
2023-07-25T22:02:40.994Z,17.48
2023-07-25T22:07:42.843Z,17.39
2023-07-25T22:12:47.776Z,17.25
2023-07-25T22:17:49.849Z,17.18
2023-07-25T22:22:51.960Z,17.15
2023-07-25T22:27:55.412Z,16.65
2023-07-25T22:32:57.352Z,17.06
2023-07-25T22:38:00.039Z,17.05
2023-07-25T22:43:01.965Z,17.05
2023-07-25T22:48:04.006Z,17.01
2023-07-25T22:53:07.444Z,16.99
2023-07-25T22:58:09.839Z,16.97
2023-07-25T23:03:11.876Z,16.94
2023-07-25T23:08:17.152Z,16.89
2023-07-25T23:13:19.226Z,16.86
2023-07-25T23:18:21.117Z,16.88
2023-07-25T23:23:23.067Z,17.04
2023-07-25T23:28:25.224Z,17.20
2023-07-25T23:33:28.929Z,17.29
2023-07-25T23:38:30.894Z,17.36
2023-07-25T23:43:32.784Z,17.36
2023-07-25T23:48:36.846Z,17.39
2023-07-25T23:53:38.833Z,17.37
2023-07-25T23:58:40.636Z,17.29
